Terminal Aerodrome Forecast
Issued by NWS

Home | Current Version | Previous Version | Text Only | Print | Product List | Glossary On
Versions: 1 2 3 4 5 6 7 8 9 10 11 12 13 14 15 16 17
827
FTUS41 KPBZ 090523
TAFFKL
TAF
KFKL 090523Z 0906/1006 24004KT P6SM OVC008
     FM090800 25005KT 3SM -SHSN OVC008
     FM091800 30008KT 5SM -SHSN BKN015
     FM100000 26006KT P6SM BKN025
      AMD LTD TO CLD VIS AND WIND=

USA.gov is the U.S. government's official web portal to all federal, state and local government web resources and services.